Time;durP1;ratioP1;P1;durP2;ratioP2;P2;SDS_P1;SDS_P2;PMS_P1;PMS_P2;Temp;Humidity;BMP_temperature;BMP_pressure;BME280_temperature;BME280_humidity;BME280_pressure;Samples;Min_cycle;Max_cycle;Signal;HPM_P1;HPM_P2
2022/12/14 00:00:15;;;;;;;70.82;20.83;;;-4.30;99.90;;;;;;5088422;28;20624;-57
2022/12/14 00:02:43;;;;;;;61.58;19.55;;;-4.30;99.90;;;;;;5085569;28;20044;-57
2022/12/14 00:05:11;;;;;;;65.18;20.15;;;-4.40;99.90;;;;;;5082446;28;20118;-58
2022/12/14 00:07:40;;;;;;;69.88;21.70;;;-4.40;99.90;;;;;;5087009;28;20044;-56
2022/12/14 00:10:08;;;;;;;59.78;19.90;;;-4.40;99.90;;;;;;5086802;28;20040;-57
2022/12/14 00:12:36;;;;;;;72.63;21.17;;;-4.40;99.90;;;;;;5083975;28;20044;-57
2022/12/14 00:15:05;;;;;;;69.47;21.85;;;-4.50;99.90;;;;;;5086817;28;20052;-57
2022/12/14 00:17:33;;;;;;;59.67;19.10;;;-4.40;99.90;;;;;;5084601;28;20498;-56
2022/12/14 00:20:04;;;;;;;62.63;20.98;;;-4.40;99.90;;;;;;5083861;28;20296;-57
2022/12/14 00:22:32;;;;;;;72.13;21.08;;;-4.50;99.90;;;;;;5088442;28;20062;-56
2022/12/14 00:25:01;;;;;;;72.38;20.92;;;-4.50;99.90;;;;;;5089054;28;20056;-57
2022/12/14 00:27:29;;;;;;;;;;;-4.50;99.90;;;;;;5084208;28;20032;-57
2022/12/14 00:29:57;;;;;;;65.43;18.08;;;-4.60;99.90;;;;;;5086572;28;19927;-58
2022/12/14 00:32:26;;;;;;;66.53;19.30;;;-4.60;99.90;;;;;;5082542;28;20052;-58
2022/12/14 00:34:54;;;;;;;58.75;19.15;;;-4.60;99.90;;;;;;5084591;28;20060;-57
2022/12/14 00:37:22;;;;;;;60.85;19.00;;;-4.60;99.90;;;;;;5084214;28;20044;-58
2022/12/14 00:39:50;;;;;;;56.40;18.17;;;-4.60;99.90;;;;;;5087004;28;20051;-57
2022/12/14 00:42:18;;;;;;;56.53;18.38;;;-4.70;99.90;;;;;;5085812;28;20052;-57
2022/12/14 00:44:46;;;;;;;63.13;18.58;;;-4.70;99.90;;;;;;5088526;28;20051;-57
2022/12/14 00:47:14;;;;;;;66.57;19.80;;;-4.70;99.90;;;;;;5085257;28;20055;-57
2022/12/14 00:49:42;;;;;;;63.08;18.20;;;-4.70;99.90;;;;;;5086017;28;20065;-57
2022/12/14 00:52:11;;;;;;;;;;;-4.70;99.90;;;;;;5087752;28;20046;-57
2022/12/14 00:54:42;;;;;;;65.85;19.73;;;-4.70;99.90;;;;;;5086683;28;19920;-57
2022/12/14 00:57:12;;;;;;;60.47;17.77;;;-4.70;99.90;;;;;;5087677;28;20392;-57
2022/12/14 00:59:40;;;;;;;70.38;19.85;;;-4.70;99.90;;;;;;5087408;28;20403;-57
2022/12/14 01:02:08;;;;;;;50.40;16.65;;;-4.70;99.90;;;;;;5084321;28;20044;-59
2022/12/14 01:04:37;;;;;;;51.15;15.70;;;-4.80;99.90;;;;;;5071338;28;20048;-58
2022/12/14 01:07:05;;;;;;;62.60;17.67;;;-4.80;99.90;;;;;;5080191;28;20051;-58
2022/12/14 01:09:33;;;;;;;56.88;19.08;;;-4.80;99.90;;;;;;5086362;28;20040;-56
2022/12/14 01:12:01;;;;;;;59.50;20.85;;;-4.80;99.90;;;;;;5086736;28;20067;-56
2022/12/14 01:14:29;;;;;;;59.55;18.30;;;-4.80;99.90;;;;;;5086512;28;20048;-56
2022/12/14 01:17:00;;;;;;;58.97;18.08;;;-4.80;99.90;;;;;;5085008;28;20403;-59
2022/12/14 01:19:28;;;;;;;57.38;17.95;;;-4.80;99.90;;;;;;5080540;28;20066;-58
2022/12/14 01:21:56;;;;;;;56.95;17.10;;;-4.80;99.90;;;;;;5084091;28;20044;-57
2022/12/14 01:24:24;;;;;;;54.42;16.85;;;-4.80;99.90;;;;;;5071556;28;20045;-58
2022/12/14 01:26:51;;;;;;;54.17;17.02;;;-4.90;99.90;;;;;;5081042;28;20480;-58
2022/12/14 01:29:19;;;;;;;54.63;16.15;;;-4.90;99.90;;;;;;5088424;28;20514;-57
2022/12/14 01:31:47;;;;;;;56.20;16.52;;;-4.90;99.90;;;;;;5087106;28;20051;-58
2022/12/14 01:34:16;;;;;;;50.83;16.92;;;-4.90;99.90;;;;;;5083962;28;20059;-58
2022/12/14 01:36:44;;;;;;;50.08;16.33;;;-4.90;99.90;;;;;;5084030;28;20499;-58
2022/12/14 01:39:14;;;;;;;45.95;14.05;;;-4.90;99.90;;;;;;5088240;28;20039;-60
2022/12/14 01:41:48;;;;;;;48.08;15.23;;;-4.90;99.90;;;;;;5088049;28;20040;-57
2022/12/14 01:44:16;;;;;;;40.35;12.45;;;-5.00;99.90;;;;;;5087405;28;20044;-58
2022/12/14 01:46:59;;;;;;;42.75;13.70;;;-5.00;99.90;;;;;;5084064;28;20055;-59
2022/12/14 01:49:45;;;;;;;49.90;14.27;;;-5.00;99.90;;;;;;5080278;28;20102;-59
2022/12/14 01:52:38;;;;;;;36.50;13.65;;;-5.00;99.90;;;;;;5101716;28;20047;-59
2022/12/14 01:55:26;;;;;;;42.70;13.18;;;-5.00;99.90;;;;;;5087158;28;20040;-58
2022/12/14 01:58:12;;;;;;;49.95;15.18;;;-5.00;99.90;;;;;;5085129;28;20051;-60
2022/12/14 02:00:42;;;;;;;54.22;15.30;;;-5.00;99.90;;;;;;5086341;28;20046;-58
2022/12/14 02:03:13;;;;;;;;;;;-5.00;99.90;;;;;;5085819;28;20036;-60
2022/12/14 02:05:47;;;;;;;47.60;15.65;;;-4.90;99.90;;;;;;5084125;28;20658;-59
2022/12/14 02:08:22;;;;;;;42.10;13.25;;;-5.00;99.90;;;;;;5086211;28;20519;-59
2022/12/14 02:10:53;;;;;;;54.75;17.77;;;-4.90;99.90;;;;;;5086044;28;20040;-59
2022/12/14 02:13:37;;;;;;;49.35;16.85;;;-5.00;99.90;;;;;;5082833;28;20036;-58
2022/12/14 02:16:05;;;;;;;46.65;16.10;;;-5.00;99.90;;;;;;5082257;28;20036;-57
2022/12/14 02:18:33;;;;;;;44.80;14.57;;;-5.00;99.90;;;;;;5081559;28;20558;-58
2022/12/14 02:21:20;;;;;;;45.22;15.07;;;-5.00;99.90;;;;;;5080700;28;20036;-58
2022/12/14 02:24:23;;;;;;;46.95;14.82;;;-5.00;99.90;;;;;;5085261;28;20047;-58
2022/12/14 02:27:09;;;;;;;50.10;15.00;;;-5.10;99.90;;;;;;5051315;28;20082;-59
2022/12/14 02:30:05;;;;;;;38.63;12.80;;;-5.10;99.90;;;;;;5086719;28;20040;-59
2022/12/14 02:32:59;;;;;;;35.67;12.32;;;-5.10;99.90;;;;;;5077303;28;20039;-58
2022/12/14 02:35:28;;;;;;;48.15;14.73;;;;;;;;;;5080049;28;20063;-58
2022/12/14 02:38:14;;;;;;;43.38;13.20;;;-5.10;99.90;;;;;;5088368;28;20399;-59
2022/12/14 02:41:15;;;;;;;41.30;13.07;;;-5.20;99.90;;;;;;5086524;28;20040;-58
2022/12/14 02:44:14;;;;;;;38.92;14.02;;;-5.30;99.90;;;;;;5087502;28;20047;-58
2022/12/14 02:46:55;;;;;;;44.63;12.70;;;-5.30;99.90;;;;;;5083974;28;20040;-59
2022/12/14 02:49:23;;;;;;;40.20;13.38;;;-5.40;99.90;;;;;;5087089;28;20406;-58
2022/12/14 02:51:59;;;;;;;42.60;13.30;;;-5.40;99.90;;;;;;5090212;28;20044;-58
2022/12/14 02:54:48;;;;;;;38.85;12.15;;;-5.50;99.90;;;;;;5089679;28;20390;-59
2022/12/14 02:57:28;;;;;;;41.03;13.32;;;-5.50;99.90;;;;;;5089935;28;21322;-58
2022/12/14 02:59:59;;;;;;;45.28;15.00;;;-5.50;99.90;;;;;;5083820;28;20040;-57
2022/12/14 03:02:28;;;;;;;35.90;12.50;;;-5.50;99.90;;;;;;5093154;28;20359;-59
2022/12/14 03:04:57;;;;;;;42.10;12.88;;;-5.60;99.90;;;;;;5092333;28;20051;-58
2022/12/14 03:07:31;;;;;;;42.65;13.10;;;-5.50;99.90;;;;;;5092147;28;20036;-58
2022/12/14 03:10:24;;;;;;;50.03;16.00;;;-5.50;99.90;;;;;;5093071;28;20052;-58
2022/12/14 03:13:01;;;;;;;39.95;13.80;;;-5.50;99.90;;;;;;5090944;28;20043;-58
2022/12/14 03:15:32;;;;;;;44.05;12.15;;;-5.50;99.90;;;;;;5093619;28;20051;-58
2022/12/14 03:18:04;;;;;;;48.17;13.73;;;-5.60;99.90;;;;;;5093337;28;20036;-59
2022/12/14 03:20:34;;;;;;;35.97;13.70;;;-5.60;99.90;;;;;;5091343;28;20063;-58
2022/12/14 03:23:09;;;;;;;47.03;14.63;;;-5.60;99.90;;;;;;5092636;28;20045;-59
2022/12/14 03:26:05;;;;;;;38.05;12.60;;;-5.60;99.90;;;;;;5093592;28;20051;-58
2022/12/14 03:28:44;;;;;;;49.47;14.90;;;-5.60;99.90;;;;;;5081466;28;20055;-59
2022/12/14 03:31:38;;;;;;;42.60;13.52;;;-5.60;99.90;;;;;;5089323;28;20040;-59
2022/12/14 03:34:12;;;;;;;48.28;12.80;;;-5.60;99.90;;;;;;5085404;28;20042;-60
2022/12/14 03:36:48;;;;;;;48.25;15.98;;;-5.60;99.90;;;;;;5093375;28;20052;-60
2022/12/14 03:39:25;;;;;;;42.97;13.93;;;-5.60;99.90;;;;;;5090661;28;20399;-59
2022/12/14 03:42:05;;;;;;;44.70;15.65;;;-5.70;99.90;;;;;;5091679;28;20040;-58
2022/12/14 03:44:49;;;;;;;56.80;16.95;;;-5.70;99.90;;;;;;5093019;28;20047;-58
2022/12/14 03:47:51;;;;;;;49.83;14.15;;;-5.70;99.90;;;;;;5090035;28;20055;-59
2022/12/14 03:50:44;;;;;;;38.25;12.02;;;-5.70;99.90;;;;;;5089872;28;20081;-59
2022/12/14 03:53:15;;;;;;;49.38;13.93;;;-5.70;99.90;;;;;;5090025;28;20032;-60
2022/12/14 03:56:04;;;;;;;45.22;13.05;;;-5.70;99.90;;;;;;5090878;28;20044;-58
2022/12/14 03:58:40;;;;;;;;;;;-5.80;99.90;;;;;;5091624;28;20048;-59
2022/12/14 04:01:27;;;;;;;42.88;14.23;;;-5.80;99.90;;;;;;5095399;28;19939;-59
2022/12/14 04:04:01;;;;;;;47.75;15.23;;;-5.90;99.90;;;;;;5095877;28;20127;-57
2022/12/14 04:06:40;;;;;;;48.13;13.32;;;-5.90;99.90;;;;;;5091150;28;20044;-58
2022/12/14 04:09:32;;;;;;;39.92;13.50;;;-5.90;99.90;;;;;;5089716;28;20047;-58
2022/12/14 04:21:36;;;;;;;38.85;14.13;;;-6.00;99.90;;;;;;5090159;28;20048;-59
2022/12/14 04:27:07;;;;;;;36.42;12.73;;;-6.00;99.90;;;;;;5092766;28;20051;-59
2022/12/14 04:29:55;;;;;;;47.78;14.82;;;-6.00;99.90;;;;;;5090101;28;20032;-58
2022/12/14 04:32:45;;;;;;;53.72;14.43;;;-6.00;99.90;;;;;;5089703;28;20055;-58
2022/12/14 04:35:39;;;;;;;41.22;12.57;;;-6.00;99.90;;;;;;5082590;28;20044;-57
2022/12/14 04:38:15;;;;;;;42.42;13.48;;;-6.10;99.90;;;;;;5089529;28;20044;-58
2022/12/14 04:40:59;;;;;;;40.35;12.48;;;-6.00;99.90;;;;;;5089984;28;20052;-60
2022/12/14 04:43:32;;;;;;;39.28;11.68;;;-6.00;99.90;;;;;;5088943;28;20036;-60
2022/12/14 04:46:06;;;;;;;34.13;11.30;;;-6.10;99.90;;;;;;5089595;28;20051;-62
2022/12/14 04:48:46;;;;;;;42.78;13.13;;;-6.00;99.90;;;;;;5088907;28;20422;-59
2022/12/14 04:51:24;;;;;;;40.35;12.13;;;-6.00;99.90;;;;;;5091980;28;20044;-61
2022/12/14 04:53:58;;;;;;;48.28;11.45;;;-6.10;99.90;;;;;;5087750;28;20048;-61
2022/12/14 04:56:35;;;;;;;37.83;11.70;;;-6.10;99.90;;;;;;5090679;28;20048;-60
2022/12/14 04:59:03;;;;;;;38.78;11.70;;;-6.10;99.90;;;;;;5090174;28;20036;-60
2022/12/14 05:01:58;;;;;;;39.08;11.98;;;-6.20;99.90;;;;;;5090032;28;20051;-61
2022/12/14 05:04:29;;;;;;;35.65;12.13;;;-6.20;99.90;;;;;;5086496;28;20040;-60
2022/12/14 05:07:20;;;;;;;34.33;10.82;;;-6.20;99.90;;;;;;5090557;28;20399;-60
2022/12/14 05:10:18;;;;;;;45.65;10.85;;;-6.10;99.90;;;;;;5089377;28;20060;-60
2022/12/14 05:13:07;;;;;;;46.08;11.88;;;-6.20;99.90;;;;;;5088478;28;20479;-60
2022/12/14 05:15:41;;;;;;;41.78;13.75;;;-6.10;99.90;;;;;;5091544;28;20063;-59
2022/12/14 05:18:10;;;;;;;49.05;14.00;;;-6.00;99.90;;;;;;5090176;28;20048;-60
2022/12/14 05:20:37;;;;;;;43.40;14.32;;;-5.90;99.90;;;;;;5090137;28;20067;-59
2022/12/14 05:23:05;;;;;;;55.83;16.60;;;-5.90;99.90;;;;;;5090486;28;20054;-59
2022/12/14 05:25:32;;;;;;;52.28;14.90;;;-5.80;99.90;;;;;;5091846;28;20044;-59
2022/12/14 05:28:03;;;;;;;48.72;15.77;;;-5.70;99.90;;;;;;5088941;28;20506;-60
2022/12/14 05:30:31;;;;;;;55.47;16.48;;;-5.70;99.90;;;;;;5092551;28;20040;-60
2022/12/14 05:32:59;;;;;;;56.47;16.10;;;-5.60;99.90;;;;;;5089721;28;20048;-60
2022/12/14 05:35:27;;;;;;;48.83;14.10;;;-5.60;99.90;;;;;;5091321;28;20399;-59
2022/12/14 05:37:57;;;;;;;49.67;14.65;;;-5.70;99.90;;;;;;5086710;28;20044;-60
2022/12/14 05:40:25;;;;;;;58.63;16.20;;;-5.60;99.90;;;;;;5090480;28;20055;-59
2022/12/14 05:43:06;;;;;;;68.20;17.52;;;-5.70;99.90;;;;;;5090650;28;20051;-59
2022/12/14 05:45:33;;;;;;;39.00;14.13;;;-5.70;99.90;;;;;;5092315;28;20394;-60
2022/12/14 05:48:01;;;;;;;55.22;15.88;;;-5.70;99.90;;;;;;5082795;28;20044;-60
2022/12/14 05:50:30;;;;;;;47.53;12.15;;;-5.70;99.90;;;;;;5081945;28;20399;-60
2022/12/14 05:52:58;;;;;;;51.22;12.98;;;-5.70;99.90;;;;;;5084646;28;20032;-60
2022/12/14 05:55:25;;;;;;;48.85;14.90;;;-5.80;99.90;;;;;;5086856;28;20048;-60
2022/12/14 05:57:59;;;;;;;49.25;14.57;;;-5.80;99.90;;;;;;5085195;28;20495;-59
2022/12/14 06:00:28;;;;;;;45.70;14.60;;;-5.80;99.90;;;;;;5086599;28;20521;-59
2022/12/14 06:02:56;;;;;;;52.80;15.35;;;-5.80;99.90;;;;;;5078145;28;20364;-60
2022/12/14 06:05:24;;;;;;;50.78;13.80;;;-5.80;99.90;;;;;;5081716;28;20874;-60
2022/12/14 06:07:53;;;;;;;50.22;13.48;;;-5.80;99.90;;;;;;5082764;28;20047;-59
2022/12/14 06:10:20;;;;;;;39.53;12.98;;;-5.90;99.90;;;;;;5083655;28;20044;-59
2022/12/14 06:12:49;;;;;;;58.22;16.10;;;-5.80;99.90;;;;;;5081452;28;20052;-60
2022/12/14 06:15:17;;;;;;;72.93;17.38;;;-5.90;99.90;;;;;;5082151;28;20048;-60
2022/12/14 06:17:46;;;;;;;42.70;14.13;;;-5.90;99.90;;;;;;5076073;28;20391;-61
2022/12/14 06:20:16;;;;;;;48.40;14.13;;;-5.90;99.90;;;;;;5078239;28;20054;-60
2022/12/14 06:22:45;;;;;;;36.90;12.55;;;-5.90;99.90;;;;;;5082538;28;20051;-61
2022/12/14 06:25:14;;;;;;;55.30;16.30;;;-5.90;99.90;;;;;;5087378;28;20487;-60
2022/12/14 06:27:42;;;;;;;40.58;14.20;;;-5.90;99.90;;;;;;5082335;28;20483;-60
2022/12/14 06:30:11;;;;;;;50.33;15.38;;;-5.90;99.90;;;;;;5078931;28;20052;-61
2022/12/14 06:32:42;;;;;;;56.67;14.60;;;-5.90;99.90;;;;;;5078979;28;20487;-60
2022/12/14 06:35:12;;;;;;;49.08;14.13;;;-6.00;99.90;;;;;;5067369;28;20386;-60
2022/12/14 06:37:40;;;;;;;42.92;14.13;;;-5.90;99.90;;;;;;5079123;28;20055;-60
2022/12/14 06:40:09;;;;;;;45.63;15.00;;;-5.90;99.90;;;;;;5084791;28;20479;-60
2022/12/14 06:42:39;;;;;;;39.20;13.32;;;-5.90;99.90;;;;;;5084996;28;20040;-59
2022/12/14 06:45:07;;;;;;;50.55;14.00;;;-5.90;99.90;;;;;;5084863;28;20407;-60
2022/12/14 06:47:34;;;;;;;54.60;16.17;;;-5.90;99.90;;;;;;5078662;28;20628;-60
2022/12/14 06:50:02;;;;;;;55.70;15.68;;;-5.80;99.90;;;;;;5080366;28;20403;-60
2022/12/14 06:52:30;;;;;;;55.80;17.95;;;-5.80;99.90;;;;;;5085477;28;20051;-59
2022/12/14 06:55:01;;;;;;;48.33;15.77;;;-5.70;99.90;;;;;;5084571;28;20048;-59
2022/12/14 06:57:31;;;;;;;49.05;14.38;;;-5.70;99.90;;;;;;5084156;28;20039;-60
2022/12/14 07:00:02;;;;;;;56.33;14.23;;;-5.70;99.90;;;;;;5085779;28;20043;-60
2022/12/14 07:02:30;;;;;;;42.05;14.18;;;-5.70;99.90;;;;;;5076394;28;20672;-60
2022/12/14 07:04:59;;;;;;;43.42;12.65;;;-5.70;99.90;;;;;;5080564;28;20044;-59
2022/12/14 07:07:27;;;;;;;55.10;15.05;;;-5.80;99.90;;;;;;5082976;28;20529;-60
2022/12/14 07:09:54;;;;;;;48.10;14.77;;;-5.80;99.90;;;;;;5083580;28;20051;-59
2022/12/14 07:12:22;;;;;;;47.75;15.45;;;-5.80;99.90;;;;;;5078561;28;20032;-60
2022/12/14 07:14:50;;;;;;;51.45;18.60;;;-5.80;99.90;;;;;;5083084;28;20044;-59
2022/12/14 07:17:25;;;;;;;56.58;18.67;;;-5.70;99.90;;;;;;5080878;28;20036;-60
2022/12/14 07:19:54;;;;;;;42.47;14.23;;;-5.80;99.90;;;;;;5081162;28;20535;-60
2022/12/14 07:22:22;;;;;;;47.30;16.23;;;-5.70;99.90;;;;;;5080715;28;20043;-59
2022/12/14 07:24:50;;;;;;;41.30;14.00;;;-5.80;99.90;;;;;;5083418;28;20048;-59
2022/12/14 07:27:18;;;;;;;55.25;18.27;;;-5.80;99.90;;;;;;5083425;28;20048;-60
2022/12/14 07:29:46;;;;;;;48.42;14.43;;;-5.80;99.90;;;;;;5078339;28;20403;-60
2022/12/14 07:32:13;;;;;;;34.60;12.27;;;-5.80;99.90;;;;;;5078118;28;20052;-59
2022/12/14 07:34:41;;;;;;;46.45;13.82;;;-5.80;99.90;;;;;;5078012;28;20556;-61
2022/12/14 07:37:09;;;;;;;42.15;13.43;;;-5.80;99.90;;;;;;5080488;28;20049;-60
2022/12/14 07:39:36;;;;;;;46.25;15.10;;;-5.80;99.90;;;;;;5081309;28;20048;-59
2022/12/14 07:42:04;;;;;;;39.92;11.93;;;-5.70;99.90;;;;;;5083823;28;20059;-60
2022/12/14 07:44:31;;;;;;;44.78;12.65;;;-5.70;99.90;;;;;;5077991;28;20047;-59
2022/12/14 07:46:59;;;;;;;35.40;11.50;;;-5.60;99.90;;;;;;5073681;28;20048;-61
2022/12/14 07:49:27;;;;;;;38.55;11.38;;;-5.60;99.90;;;;;;5073907;28;20044;-59
2022/12/14 07:51:54;;;;;;;51.85;15.65;;;-6.20;99.90;;;;;;5072271;28;20503;-60
2022/12/14 07:54:23;;;;;;;42.97;12.82;;;-5.60;99.90;;;;;;5075816;28;20507;-60
2022/12/14 07:56:52;;;;;;;39.60;13.75;;;;;;;;;;5074220;28;20063;-61
2022/12/14 07:59:21;;;;;;;39.00;15.02;;;-5.60;99.90;;;;;;5076684;28;20041;-60
2022/12/14 08:01:51;;;;;;;49.85;15.52;;;-5.60;99.90;;;;;;5068000;28;20503;-60
2022/12/14 08:04:20;;;;;;;53.75;15.13;;;-5.60;99.90;;;;;;5076098;28;20040;-61
2022/12/14 08:06:48;;;;;;;51.08;15.43;;;-5.60;99.90;;;;;;5064384;28;21042;-60
2022/12/14 08:09:16;;;;;;;39.85;14.85;;;-5.60;99.90;;;;;;5066424;28;20392;-60
2022/12/14 08:11:45;;;;;;;44.25;14.57;;;-5.50;99.90;;;;;;5072750;28;20044;-60
2022/12/14 08:14:17;;;;;;;36.33;12.27;;;-5.60;99.90;;;;;;5071426;28;20064;-60
2022/12/14 08:16:47;;;;;;;39.88;13.85;;;-5.60;99.90;;;;;;5074341;28;20039;-60
2022/12/14 08:19:17;;;;;;;43.85;14.00;;;-5.50;99.90;;;;;;5083053;28;20052;-60
2022/12/14 08:21:45;;;;;;;35.33;12.13;;;-5.50;99.90;;;;;;5078761;28;20051;-58
2022/12/14 08:24:13;;;;;;;35.65;13.88;;;-5.50;99.90;;;;;;5081430;28;20040;-59
2022/12/14 08:26:41;;;;;;;36.28;12.38;;;-5.50;99.90;;;;;;5080158;28;20047;-60
2022/12/14 08:29:16;;;;;;;42.97;13.63;;;-5.50;99.90;;;;;;5077452;28;20040;-61
2022/12/14 08:31:44;;;;;;;31.93;13.27;;;-5.50;99.90;;;;;;5080424;28;20047;-60
2022/12/14 08:34:14;;;;;;;38.05;12.07;;;-5.40;99.90;;;;;;5068352;28;20297;-59
2022/12/14 08:36:42;;;;;;;51.50;14.00;;;-5.40;99.90;;;;;;5080195;28;20044;-60
2022/12/14 08:39:13;;;;;;;38.88;14.45;;;-5.40;99.90;;;;;;5095255;28;20047;-60
2022/12/14 08:41:41;;;;;;;39.90;13.73;;;-5.30;99.90;;;;;;5086116;28;20047;-59
2022/12/14 08:44:12;;;;;;;37.15;13.60;;;-5.30;99.90;;;;;;5083645;28;20036;-60
2022/12/14 08:46:41;;;;;;;46.38;14.02;;;-5.30;99.90;;;;;;5087736;28;20066;-60
2022/12/14 08:49:09;;;;;;;;;;;-5.20;99.90;;;;;;5089177;28;20044;-59
2022/12/14 08:51:44;;;;;;;34.08;13.18;;;-5.20;99.90;;;;;;5087295;28;19931;-61
2022/12/14 08:54:12;;;;;;;52.88;16.13;;;-5.20;99.90;;;;;;5087952;28;20047;-59
2022/12/14 08:56:40;;;;;;;49.35;16.88;;;-5.10;99.90;;;;;;5071599;28;20043;-60
2022/12/14 08:59:11;;;;;;;33.65;13.05;;;-5.10;99.90;;;;;;5087307;28;20051;-59
2022/12/14 09:01:59;;;;;;;31.45;10.77;;;-5.00;99.90;;;;;;5078900;28;20055;-60
2022/12/14 09:04:30;;;;;;;27.95;12.10;;;-5.00;99.90;;;;;;5088040;28;20055;-59
2022/12/14 09:06:58;;;;;;;28.45;10.80;;;-4.90;99.90;;;;;;5086835;28;20047;-60
2022/12/14 09:09:26;;;;;;;32.35;11.30;;;-4.80;99.90;;;;;;5076411;28;20051;-60
2022/12/14 09:11:54;;;;;;;27.63;11.18;;;-4.70;99.90;;;;;;5084469;28;20044;-60
2022/12/14 09:14:22;;;;;;;33.53;11.88;;;-4.50;99.90;;;;;;5085170;28;20323;-60
2022/12/14 09:16:51;;;;;;;33.58;12.27;;;-4.50;99.90;;;;;;5084570;28;20499;-60
2022/12/14 09:19:18;;;;;;;34.22;12.60;;;-4.30;99.90;;;;;;5088440;28;20044;-61
2022/12/14 09:21:46;;;;;;;41.35;12.98;;;-4.30;99.90;;;;;;5086303;28;20047;-58
2022/12/14 09:24:14;;;;;;;29.58;10.93;;;-4.20;99.90;;;;;;5086041;28;20048;-60
2022/12/14 09:26:46;;;;;;;40.58;12.82;;;-4.10;99.90;;;;;;5079327;28;20051;-60
2022/12/14 09:29:15;;;;;;;36.95;11.45;;;-4.00;99.90;;;;;;5087230;28;20048;-60
2022/12/14 09:31:43;;;;;;;39.50;13.40;;;-3.90;99.90;;;;;;5083836;28;20052;-61
2022/12/14 09:34:12;;;;;;;28.70;12.60;;;-3.80;99.90;;;;;;5073105;28;20060;-60
2022/12/14 09:36:40;;;;;;;40.17;14.48;;;-3.80;99.90;;;;;;5085018;28;20048;-59
2022/12/14 09:39:08;;;;;;;33.10;15.50;;;-3.60;99.90;;;;;;5089222;28;20524;-60
2022/12/14 09:41:55;;;;;;;36.30;15.55;;;-3.50;99.90;;;;;;5074197;28;20315;-59
2022/12/14 09:44:42;;;;;;;42.83;15.55;;;-3.50;99.90;;;;;;5086477;28;20048;-60
2022/12/14 09:47:25;;;;;;;42.53;16.05;;;-3.30;99.90;;;;;;5087517;28;20519;-61
2022/12/14 09:50:28;;;;;;;33.90;13.15;;;-3.30;99.90;;;;;;5074019;28;20040;-61
2022/12/14 09:53:01;;;;;;;39.85;15.98;;;-3.20;99.90;;;;;;5035490;28;20120;-60
2022/12/14 09:55:41;;;;;;;34.75;13.15;;;-3.00;99.90;;;;;;5076826;28;20044;-60
2022/12/14 09:58:16;;;;;;;44.35;14.23;;;-3.00;99.90;;;;;;5088475;28;20047;-60
2022/12/14 10:00:51;;;;;;;38.58;14.88;;;-2.90;99.90;;;;;;5087514;28;20056;-60
2022/12/14 10:03:44;;;;;;;33.67;12.85;;;-2.90;99.90;;;;;;5085370;28;20055;-59
2022/12/14 10:06:25;;;;;;;33.17;12.98;;;-2.80;99.90;;;;;;5087188;28;20514;-60
2022/12/14 10:09:20;;;;;;;37.05;13.68;;;-2.70;99.90;;;;;;5084025;28;20044;-59
2022/12/14 10:12:05;;;;;;;41.85;14.65;;;-2.60;99.90;;;;;;5075262;28;20044;-60
2022/12/14 10:14:55;;;;;;;35.65;14.15;;;-2.50;99.90;;;;;;5079653;28;20043;-59
2022/12/14 10:17:44;;;;;;;44.33;15.27;;;-2.50;99.90;;;;;;5083522;28;20407;-58
2022/12/14 10:20:20;;;;;;;42.45;15.18;;;-2.40;99.90;;;;;;5084088;28;20411;-59
2022/12/14 10:22:53;;;;;;;40.08;14.98;;;-2.20;99.90;;;;;;5083505;28;20051;-58
2022/12/14 10:25:26;;;;;;;42.22;15.82;;;-2.20;99.90;;;;;;5087689;28;20039;-59
2022/12/14 10:27:57;;;;;;;42.47;13.80;;;-2.10;99.90;;;;;;5075193;28;20059;-59
2022/12/14 10:30:40;;;;;;;49.70;16.70;;;-2.10;99.90;;;;;;5086147;28;20032;-59
2022/12/14 10:33:30;;;;;;;45.03;15.32;;;-2.10;99.90;;;;;;5086312;28;20051;-59
2022/12/14 10:36:16;;;;;;;37.00;13.63;;;-2.00;99.90;;;;;;5079911;28;20036;-58
2022/12/14 10:38:57;;;;;;;38.90;16.10;;;-2.00;99.90;;;;;;5083320;28;20040;-58
2022/12/14 10:41:55;;;;;;;36.95;14.88;;;-1.90;99.90;;;;;;5092683;28;20051;-59
2022/12/14 10:44:46;;;;;;;40.95;15.90;;;-1.90;99.90;;;;;;5052332;28;20047;-58
2022/12/14 10:47:41;;;;;;;36.47;14.30;;;-1.80;99.90;;;;;;5085798;28;20216;-57
2022/12/14 10:50:18;;;;;;;40.55;13.85;;;-1.70;99.90;;;;;;5083980;28;20048;-57
2022/12/14 10:52:49;;;;;;;43.00;16.42;;;-1.70;99.90;;;;;;5084636;28;20051;-56
2022/12/14 10:55:28;;;;;;;41.30;14.32;;;-1.70;99.90;;;;;;5086159;28;20044;-55
2022/12/14 10:57:56;;;;;;;36.55;14.63;;;-1.60;99.90;;;;;;5084378;28;20391;-57
2022/12/14 11:00:24;;;;;;;54.90;18.25;;;-1.60;99.90;;;;;;5088131;28;20055;-58
2022/12/14 11:02:56;;;;;;;50.95;18.77;;;-0.30;99.90;;;;;;5086321;28;20055;-56
2022/12/14 11:05:49;;;;;;;46.30;17.50;;;-1.40;99.90;;;;;;5085919;28;20483;-57
2022/12/14 11:08:40;;;;;;;40.13;16.05;;;-1.20;99.90;;;;;;5082467;28;20586;-56
2022/12/14 11:11:16;;;;;;;47.05;16.30;;;-1.10;99.90;;;;;;5083194;28;20048;-56
2022/12/14 11:14:07;;;;;;;44.83;15.77;;;-1.00;99.90;;;;;;5086348;28;20048;-57
2022/12/14 11:16:37;;;;;;;38.03;14.40;;;-0.90;99.90;;;;;;5081056;28;20636;-57
2022/12/14 11:19:18;;;;;;;42.53;16.00;;;-0.60;99.90;;;;;;5075056;28;20055;-57
2022/12/14 11:21:46;;;;;;;47.63;15.70;;;-0.70;99.90;;;;;;5088663;28;20036;-57
2022/12/14 11:24:25;;;;;;;42.25;14.93;;;-0.40;99.90;;;;;;5077305;28;20589;-57
2022/12/14 11:27:04;;;;;;;42.38;14.82;;;-0.40;99.90;;;;;;5083812;28;20055;-58
2022/12/14 11:29:36;;;;;;;38.10;14.05;;;-0.30;99.90;;;;;;5087054;28;20036;-58
2022/12/14 11:32:04;;;;;;;33.45;13.65;;;-0.10;99.90;;;;;;5088715;28;20052;-58
2022/12/14 11:34:37;;;;;;;39.05;14.82;;;0.20;99.90;;;;;;5091415;28;20044;-59
2022/12/14 11:37:28;;;;;;;36.65;13.48;;;0.40;99.90;;;;;;5083020;28;20036;-58
2022/12/14 11:40:24;;;;;;;36.70;14.05;;;0.50;99.90;;;;;;5079419;28;20060;-59
2022/12/14 11:43:02;;;;;;;32.65;12.55;;;0.50;99.90;;;;;;5086494;28;20048;-60
2022/12/14 11:45:34;;;;;;;39.55;13.00;;;0.80;99.90;;;;;;5091304;28;20552;-59
2022/12/14 11:48:14;;;;;;;34.83;12.77;;;0.80;99.90;;;;;;5089902;28;20414;-58
2022/12/14 11:50:44;;;;;;;39.28;13.55;;;1.10;99.90;;;;;;5089227;28;20050;-58
2022/12/14 11:53:15;;;;;;;33.55;14.23;;;1.30;99.90;;;;;;5091100;28;20418;-59
2022/12/14 11:55:54;;;;;;;35.95;13.57;;;1.90;99.90;;;;;;5090815;28;20044;-58
2022/12/14 11:58:32;;;;;;;29.23;11.63;;;1.90;99.90;;;;;;5087714;28;20050;-58
2022/12/14 12:01:15;;;;;;;33.13;14.80;;;2.20;99.90;;;;;;5089588;28;20048;-59
2022/12/14 12:03:51;;;;;;;29.75;13.05;;;2.40;99.90;;;;;;5089648;28;20066;-57
2022/12/14 12:06:23;;;;;;;33.53;12.77;;;2.70;99.90;;;;;;5090857;28;20043;-58
2022/12/14 12:09:00;;;;;;;24.00;10.27;;;2.90;99.90;;;;;;5089979;28;20071;-59
2022/12/14 12:11:30;;;;;;;28.88;11.70;;;3.20;99.90;;;;;;5089620;28;20040;-58
2022/12/14 12:14:19;;;;;;;26.42;10.35;;;3.40;99.90;;;;;;5068760;28;20053;-61
2022/12/14 12:16:47;;;;;;;21.92;10.27;;;3.60;99.90;;;;;;5078203;28;20035;-58
2022/12/14 12:19:25;;;;;;;26.60;11.40;;;3.90;99.90;;;;;;5090459;28;20399;-58
2022/12/14 12:21:55;;;;;;;24.73;10.70;;;4.20;99.90;;;;;;5089361;28;20048;-59
2022/12/14 12:24:37;;;;;;;31.13;11.18;;;4.40;99.90;;;;;;5090105;28;20052;-58
2022/12/14 12:27:26;;;;;;;24.52;10.75;;;4.60;99.90;;;;;;5090728;28;20036;-59
2022/12/14 12:30:20;;;;;;;25.13;10.05;;;4.80;99.90;;;;;;5074173;28;20061;-59
2022/12/14 12:32:51;;;;;;;27.55;10.82;;;5.00;99.90;;;;;;5079300;28;20055;-59
2022/12/14 12:35:48;;;;;;;29.45;11.98;;;5.30;99.90;;;;;;5081871;28;20046;-58
2022/12/14 12:38:31;;;;;;;30.92;11.50;;;5.40;99.90;;;;;;5079113;28;20055;-58
2022/12/14 12:41:07;;;;;;;28.70;12.35;;;5.30;99.90;;;;;;5075582;28;20045;-58
2022/12/14 12:43:47;;;;;;;34.58;12.90;;;5.30;99.90;;;;;;5085063;28;20068;-60
2022/12/14 12:46:28;;;;;;;33.15;12.20;;;5.50;99.90;;;;;;5081743;28;20040;-59
2022/12/14 12:49:03;;;;;;;28.50;10.98;;;5.80;99.90;;;;;;5084112;28;20040;-58
2022/12/14 12:51:42;;;;;;;25.55;11.30;;;6.20;99.90;;;;;;5088409;28;20371;-58
2022/12/14 12:54:34;;;;;;;29.92;11.10;;;6.70;99.90;;;;;;5084178;28;20052;-58
2022/12/14 12:57:05;;;;;;;25.65;10.27;;;6.90;99.90;;;;;;5085635;28;20048;-59
2022/12/14 12:59:45;;;;;;;29.70;10.48;;;6.90;99.90;;;;;;5078095;28;20049;-58
2022/12/14 13:02:19;;;;;;;19.27;9.88;;;6.80;99.90;;;;;;5086444;28;20074;-58
2022/12/14 13:04:50;;;;;;;25.90;11.85;;;6.80;99.90;;;;;;5086349;28;20048;-59
2022/12/14 13:07:31;;;;;;;23.40;11.10;;;6.80;99.90;;;;;;5088310;28;20047;-57
2022/12/14 13:10:22;;;;;;;24.00;10.95;;;6.70;99.90;;;;;;5088303;28;20051;-58
2022/12/14 13:13:06;;;;;;;26.63;11.10;;;6.60;99.90;;;;;;5089818;28;20044;-58
2022/12/14 13:15:41;;;;;;;27.77;11.45;;;6.60;99.90;;;;;;5084513;28;20044;-59
2022/12/14 13:18:25;;;;;;;32.30;15.40;;;6.60;99.90;;;;;;5086004;28;20384;-59
2022/12/14 13:21:51;;;;;;;24.88;11.43;;;6.60;99.90;;;;;;5088607;28;20040;-58